sensor_id;sensor_type;location;lat;lon;timestamp;pressure;altitude;pressure_sealevel;temperature;humidity
52957;BME280;38819;42.692;23.342;2024-02-21T00:00:01;95960.84;;;7.78;69.13
52957;BME280;38819;42.692;23.342;2024-02-21T00:02:27;95964.88;;;7.81;69.45
52957;BME280;38819;42.692;23.342;2024-02-21T00:04:52;95963.13;;;7.65;69.80
52957;BME280;38819;42.692;23.342;2024-02-21T00:07:17;95961.91;;;7.77;69.52
52957;BME280;38819;42.692;23.342;2024-02-21T00:09:43;95949.81;;;7.80;69.33
52957;BME280;38819;42.692;23.342;2024-02-21T00:12:08;95961.66;;;7.79;69.42
52957;BME280;38819;42.692;23.342;2024-02-21T00:14:34;95958.38;;;7.72;69.67
52957;BME280;38819;42.692;23.342;2024-02-21T00:16:59;95957.03;;;7.74;69.41
52957;BME280;38819;42.692;23.342;2024-02-21T00:19:24;95958.44;;;7.82;69.32
52957;BME280;38819;42.692;23.342;2024-02-21T00:21:50;95951.91;;;7.73;69.26
52957;BME280;38819;42.692;23.342;2024-02-21T00:24:15;95956.00;;;7.81;69.29
52957;BME280;38819;42.692;23.342;2024-02-21T00:26:41;95955.59;;;7.67;69.68
52957;BME280;38819;42.692;23.342;2024-02-21T00:29:06;95949.47;;;7.71;69.58
52957;BME280;38819;42.692;23.342;2024-02-21T00:31:32;95950.59;;;7.75;69.50
52957;BME280;38819;42.692;23.342;2024-02-21T00:33:57;95948.41;;;7.72;69.68
52957;BME280;38819;42.692;23.342;2024-02-21T00:36:23;95949.22;;;7.73;69.44
52957;BME280;38819;42.692;23.342;2024-02-21T00:38:49;95948.66;;;7.71;69.28
52957;BME280;38819;42.692;23.342;2024-02-21T00:41:14;95949.81;;;7.80;68.89
52957;BME280;38819;42.692;23.342;2024-02-21T00:43:39;95945.50;;;7.79;69.29
52957;BME280;38819;42.692;23.342;2024-02-21T00:46:06;95929.06;;;7.75;69.32
52957;BME280;38819;42.692;23.342;2024-02-21T00:48:31;95937.00;;;7.60;69.88
52957;BME280;38819;42.692;23.342;2024-02-21T00:50:56;95938.47;;;7.73;69.75
52957;BME280;38819;42.692;23.342;2024-02-21T00:53:22;95939.00;;;7.75;69.45
52957;BME280;38819;42.692;23.342;2024-02-21T00:55:47;95926.31;;;7.65;69.65
52957;BME280;38819;42.692;23.342;2024-02-21T00:58:13;95931.38;;;7.61;70.13
52957;BME280;38819;42.692;23.342;2024-02-21T01:00:38;95927.63;;;7.63;69.83
52957;BME280;38819;42.692;23.342;2024-02-21T01:03:03;95931.97;;;7.69;69.31
52957;BME280;38819;42.692;23.342;2024-02-21T01:05:29;95914.34;;;7.51;69.94
52957;BME280;38819;42.692;23.342;2024-02-21T01:07:54;95919.50;;;7.57;69.99
52957;BME280;38819;42.692;23.342;2024-02-21T01:10:20;95918.47;;;7.58;69.99
52957;BME280;38819;42.692;23.342;2024-02-21T01:12:45;95914.69;;;7.59;69.84
52957;BME280;38819;42.692;23.342;2024-02-21T01:15:10;95919.31;;;7.64;69.69
52957;BME280;38819;42.692;23.342;2024-02-21T01:17:37;95916.31;;;7.60;70.05
52957;BME280;38819;42.692;23.342;2024-02-21T01:20:03;95911.22;;;7.64;69.97
52957;BME280;38819;42.692;23.342;2024-02-21T01:22:30;95910.72;;;7.67;69.81
52957;BME280;38819;42.692;23.342;2024-02-21T01:24:56;95905.06;;;7.64;70.15
52957;BME280;38819;42.692;23.342;2024-02-21T01:27:21;95906.09;;;7.63;70.09
52957;BME280;38819;42.692;23.342;2024-02-21T01:29:46;95911.75;;;7.61;70.06
52957;BME280;38819;42.692;23.342;2024-02-21T01:32:14;95903.09;;;7.54;70.00
52957;BME280;38819;42.692;23.342;2024-02-21T01:34:40;95907.03;;;7.46;70.42
52957;BME280;38819;42.692;23.342;2024-02-21T01:37:05;95895.53;;;7.51;70.29
52957;BME280;38819;42.692;23.342;2024-02-21T01:39:32;95901.47;;;7.53;70.13
52957;BME280;38819;42.692;23.342;2024-02-21T01:41:58;95894.16;;;7.48;70.38
52957;BME280;38819;42.692;23.342;2024-02-21T01:44:24;95893.44;;;7.58;69.36
52957;BME280;38819;42.692;23.342;2024-02-21T01:46:49;95890.50;;;7.59;69.73
52957;BME280;38819;42.692;23.342;2024-02-21T01:49:15;95887.81;;;7.59;69.73
52957;BME280;38819;42.692;23.342;2024-02-21T01:51:40;95887.28;;;7.63;69.38
52957;BME280;38819;42.692;23.342;2024-02-21T01:54:06;95882.16;;;7.61;69.39
52957;BME280;38819;42.692;23.342;2024-02-21T01:56:31;95884.91;;;7.66;69.27
52957;BME280;38819;42.692;23.342;2024-02-21T01:58:57;95883.84;;;7.67;69.19
52957;BME280;38819;42.692;23.342;2024-02-21T02:01:23;95880.03;;;7.63;68.91
52957;BME280;38819;42.692;23.342;2024-02-21T02:03:49;95885.41;;;7.63;68.82
52957;BME280;38819;42.692;23.342;2024-02-21T02:06:14;95886.00;;;7.70;68.67
52957;BME280;38819;42.692;23.342;2024-02-21T02:08:40;95880.63;;;7.70;68.43
52957;BME280;38819;42.692;23.342;2024-02-21T02:11:05;95894.38;;;7.74;68.41
52957;BME280;38819;42.692;23.342;2024-02-21T02:13:32;95894.63;;;7.72;67.99
52957;BME280;38819;42.692;23.342;2024-02-21T02:15:57;95887.44;;;7.83;67.85
52957;BME280;38819;42.692;23.342;2024-02-21T02:18:22;95884.75;;;7.83;67.72
52957;BME280;38819;42.692;23.342;2024-02-21T02:20:48;95885.84;;;7.82;67.91
52957;BME280;38819;42.692;23.342;2024-02-21T02:23:30;95880.94;;;7.74;68.08
52957;BME280;38819;42.692;23.342;2024-02-21T02:25:59;95887.16;;;7.79;68.14
52957;BME280;38819;42.692;23.342;2024-02-21T02:28:26;95871.53;;;7.76;68.31
52957;BME280;38819;42.692;23.342;2024-02-21T02:30:52;95874.47;;;7.75;68.42
52957;BME280;38819;42.692;23.342;2024-02-21T02:33:17;95877.69;;;7.72;68.43
52957;BME280;38819;42.692;23.342;2024-02-21T02:35:43;95876.91;;;7.76;68.26
52957;BME280;38819;42.692;23.342;2024-02-21T02:38:08;95865.06;;;7.72;68.39
52957;BME280;38819;42.692;23.342;2024-02-21T02:40:35;95863.72;;;7.75;68.16
52957;BME280;38819;42.692;23.342;2024-02-21T02:43:00;95873.44;;;7.81;67.98
52957;BME280;38819;42.692;23.342;2024-02-21T02:45:26;95871.47;;;7.71;68.54
52957;BME280;38819;42.692;23.342;2024-02-21T02:47:55;95873.41;;;7.76;68.25
52957;BME280;38819;42.692;23.342;2024-02-21T02:50:22;95868.53;;;7.73;68.24
52957;BME280;38819;42.692;23.342;2024-02-21T02:52:48;95870.47;;;7.77;68.13
52957;BME280;38819;42.692;23.342;2024-02-21T02:55:13;95875.53;;;7.69;68.20
52957;BME280;38819;42.692;23.342;2024-02-21T02:57:39;95875.25;;;7.70;68.54
52957;BME280;38819;42.692;23.342;2024-02-21T03:00:06;95881.16;;;7.67;68.60
52957;BME280;38819;42.692;23.342;2024-02-21T03:02:32;95876.03;;;7.66;68.88
52957;BME280;38819;42.692;23.342;2024-02-21T03:04:57;95873.31;;;7.60;69.06
52957;BME280;38819;42.692;23.342;2024-02-21T03:07:24;95871.66;;;7.59;69.00
52957;BME280;38819;42.692;23.342;2024-02-21T03:09:49;95874.34;;;7.59;69.20
52957;BME280;38819;42.692;23.342;2024-02-21T03:12:15;95870.63;;;7.60;68.79
52957;BME280;38819;42.692;23.342;2024-02-21T03:14:44;95880.63;;;7.70;68.78
52957;BME280;38819;42.692;23.342;2024-02-21T03:17:09;95882.03;;;7.78;68.50
52957;BME280;38819;42.692;23.342;2024-02-21T03:19:35;95887.38;;;7.73;68.49
52957;BME280;38819;42.692;23.342;2024-02-21T03:22:00;95889.53;;;7.76;68.48
52957;BME280;38819;42.692;23.342;2024-02-21T03:24:25;95884.38;;;7.69;68.48
52957;BME280;38819;42.692;23.342;2024-02-21T03:26:51;95888.13;;;7.68;68.86
52957;BME280;38819;42.692;23.342;2024-02-21T03:29:16;95891.66;;;7.69;68.87
52957;BME280;38819;42.692;23.342;2024-02-21T03:31:42;95893.00;;;7.71;68.73
52957;BME280;38819;42.692;23.342;2024-02-21T03:34:10;95894.91;;;7.76;68.53
52957;BME280;38819;42.692;23.342;2024-02-21T03:36:35;95899.03;;;7.84;68.36
52957;BME280;38819;42.692;23.342;2024-02-21T03:39:00;95892.75;;;7.73;68.44
52957;BME280;38819;42.692;23.342;2024-02-21T03:41:26;95902.78;;;7.83;67.95
52957;BME280;38819;42.692;23.342;2024-02-21T03:43:51;95910.38;;;7.91;67.99
52957;BME280;38819;42.692;23.342;2024-02-21T03:46:17;95911.09;;;7.81;67.85
52957;BME280;38819;42.692;23.342;2024-02-21T03:48:42;95917.50;;;7.75;68.27
52957;BME280;38819;42.692;23.342;2024-02-21T03:51:08;95917.53;;;7.80;67.97
52957;BME280;38819;42.692;23.342;2024-02-21T03:53:33;95910.19;;;7.65;68.08
52957;BME280;38819;42.692;23.342;2024-02-21T03:56:03;95908.84;;;7.68;68.46
52957;BME280;38819;42.692;23.342;2024-02-21T03:58:33;95909.91;;;7.67;68.52
52957;BME280;38819;42.692;23.342;2024-02-21T04:01:02;95913.91;;;7.64;68.91
52957;BME280;38819;42.692;23.342;2024-02-21T04:03:28;95905.38;;;7.72;68.66
52957;BME280;38819;42.692;23.342;2024-02-21T04:05:54;95911.03;;;7.71;68.39
52957;BME280;38819;42.692;23.342;2024-02-21T04:08:19;95906.44;;;7.71;68.23
52957;BME280;38819;42.692;23.342;2024-02-21T04:10:45;95900.00;;;7.72;68.34
52957;BME280;38819;42.692;23.342;2024-02-21T04:13:10;95900.47;;;7.64;68.22
52957;BME280;38819;42.692;23.342;2024-02-21T04:15:36;95903.75;;;7.71;68.07
52957;BME280;38819;42.692;23.342;2024-02-21T04:18:02;95903.03;;;7.81;67.47
52957;BME280;38819;42.692;23.342;2024-02-21T04:20:28;95909.78;;;7.84;67.49
52957;BME280;38819;42.692;23.342;2024-02-21T04:22:54;95896.84;;;7.81;67.29
52957;BME280;38819;42.692;23.342;2024-02-21T04:25:20;95902.69;;;7.72;67.63
52957;BME280;38819;42.692;23.342;2024-02-21T04:27:46;95898.66;;;7.75;67.57
52957;BME280;38819;42.692;23.342;2024-02-21T04:30:11;95899.97;;;7.67;68.04
52957;BME280;38819;42.692;23.342;2024-02-21T04:32:38;95898.13;;;7.73;67.66
52957;BME280;38819;42.692;23.342;2024-02-21T04:35:04;95897.06;;;7.74;67.29
52957;BME280;38819;42.692;23.342;2024-02-21T04:37:29;95906.78;;;7.80;67.40
52957;BME280;38819;42.692;23.342;2024-02-21T04:39:54;95910.28;;;7.81;67.57
52957;BME280;38819;42.692;23.342;2024-02-21T04:42:20;95902.72;;;7.77;67.52
52957;BME280;38819;42.692;23.342;2024-02-21T04:44:45;95908.19;;;7.88;67.12
52957;BME280;38819;42.692;23.342;2024-02-21T04:47:10;95908.69;;;7.85;67.35
52957;BME280;38819;42.692;23.342;2024-02-21T04:49:36;95901.97;;;7.82;67.34
52957;BME280;38819;42.692;23.342;2024-02-21T04:52:01;95905.47;;;7.83;67.34
52957;BME280;38819;42.692;23.342;2024-02-21T04:54:27;95907.59;;;7.81;67.57
52957;BME280;38819;42.692;23.342;2024-02-21T04:56:52;95912.16;;;7.80;67.73
52957;BME280;38819;42.692;23.342;2024-02-21T04:59:18;95909.22;;;7.82;67.42
52957;BME280;38819;42.692;23.342;2024-02-21T05:01:43;95908.16;;;7.83;67.46
52957;BME280;38819;42.692;23.342;2024-02-21T05:04:09;95910.03;;;7.82;67.31
52957;BME280;38819;42.692;23.342;2024-02-21T05:06:38;95909.47;;;7.80;67.27
52957;BME280;38819;42.692;23.342;2024-02-21T05:09:04;95894.13;;;7.75;67.36
52957;BME280;38819;42.692;23.342;2024-02-21T05:11:30;95908.63;;;7.74;67.56
52957;BME280;38819;42.692;23.342;2024-02-21T05:13:55;95906.66;;;7.65;68.16
52957;BME280;38819;42.692;23.342;2024-02-21T05:16:21;95916.81;;;7.57;68.24
52957;BME280;38819;42.692;23.342;2024-02-21T05:18:46;95918.25;;;7.65;68.17
52957;BME280;38819;42.692;23.342;2024-02-21T05:21:11;95922.53;;;7.66;68.33
52957;BME280;38819;42.692;23.342;2024-02-21T05:23:37;95927.53;;;7.52;68.69
52957;BME280;38819;42.692;23.342;2024-02-21T05:26:05;95921.66;;;7.55;68.56
52957;BME280;38819;42.692;23.342;2024-02-21T05:28:30;95908.97;;;7.51;69.00
52957;BME280;38819;42.692;23.342;2024-02-21T05:30:56;95925.53;;;7.37;69.52
52957;BME280;38819;42.692;23.342;2024-02-21T05:33:21;95918.47;;;7.31;69.64
52957;BME280;38819;42.692;23.342;2024-02-21T05:35:47;95922.47;;;7.29;69.94
52957;BME280;38819;42.692;23.342;2024-02-21T05:38:14;95915.44;;;7.22;70.16
52957;BME280;38819;42.692;23.342;2024-02-21T05:40:39;95920.03;;;7.27;69.96
52957;BME280;38819;42.692;23.342;2024-02-21T05:43:04;95919.78;;;7.29;69.71
52957;BME280;38819;42.692;23.342;2024-02-21T05:45:30;95919.22;;;7.27;69.68
52957;BME280;38819;42.692;23.342;2024-02-21T05:47:55;95926.38;;;7.16;69.94
52957;BME280;38819;42.692;23.342;2024-02-21T05:50:22;95924.03;;;7.24;69.86
52957;BME280;38819;42.692;23.342;2024-02-21T05:52:51;95927.56;;;7.25;69.56
52957;BME280;38819;42.692;23.342;2024-02-21T05:55:16;95928.66;;;7.29;69.25
52957;BME280;38819;42.692;23.342;2024-02-21T05:57:42;95936.06;;;7.44;69.34
52957;BME280;38819;42.692;23.342;2024-02-21T06:00:07;95941.13;;;7.40;68.74
52957;BME280;38819;42.692;23.342;2024-02-21T06:02:33;95938.66;;;7.34;68.95
52957;BME280;38819;42.692;23.342;2024-02-21T06:04:58;95937.94;;;7.44;68.46
52957;BME280;38819;42.692;23.342;2024-02-21T06:07:24;95942.88;;;7.52;68.42
52957;BME280;38819;42.692;23.342;2024-02-21T06:09:49;95947.19;;;7.58;68.09
52957;BME280;38819;42.692;23.342;2024-02-21T06:12:14;95953.13;;;7.60;67.71
52957;BME280;38819;42.692;23.342;2024-02-21T06:14:40;95949.03;;;7.52;67.99
52957;BME280;38819;42.692;23.342;2024-02-21T06:17:05;95953.66;;;7.57;67.68
52957;BME280;38819;42.692;23.342;2024-02-21T06:19:30;95950.19;;;7.61;67.30
52957;BME280;38819;42.692;23.342;2024-02-21T06:21:56;95954.50;;;7.63;67.64
52957;BME280;38819;42.692;23.342;2024-02-21T06:24:21;95947.00;;;7.65;67.46
52957;BME280;38819;42.692;23.342;2024-02-21T06:26:47;95959.03;;;7.57;67.67
52957;BME280;38819;42.692;23.342;2024-02-21T06:29:12;95958.63;;;7.70;66.94
52957;BME280;38819;42.692;23.342;2024-02-21T06:31:39;95958.88;;;7.69;67.05
52957;BME280;38819;42.692;23.342;2024-02-21T06:34:05;95967.31;;;7.83;66.90
52957;BME280;38819;42.692;23.342;2024-02-21T06:36:30;95959.22;;;7.77;66.89
52957;BME280;38819;42.692;23.342;2024-02-21T06:38:55;95975.72;;;7.91;66.71
52957;BME280;38819;42.692;23.342;2024-02-21T06:41:21;95970.09;;;7.93;66.38
52957;BME280;38819;42.692;23.342;2024-02-21T06:43:47;95977.94;;;8.00;66.28
52957;BME280;38819;42.692;23.342;2024-02-21T06:46:30;95984.13;;;8.00;66.19
52957;BME280;38819;42.692;23.342;2024-02-21T06:48:58;95979.91;;;8.09;65.66
52957;BME280;38819;42.692;23.342;2024-02-21T06:51:23;95987.44;;;8.07;65.60
52957;BME280;38819;42.692;23.342;2024-02-21T06:53:50;95986.38;;;8.13;65.65
52957;BME280;38819;42.692;23.342;2024-02-21T06:56:15;95983.13;;;8.11;65.54
52957;BME280;38819;42.692;23.342;2024-02-21T06:58:40;95988.56;;;8.16;65.59
52957;BME280;38819;42.692;23.342;2024-02-21T07:01:06;95979.19;;;8.24;65.39
52957;BME280;38819;42.692;23.342;2024-02-21T07:03:32;95985.38;;;8.25;65.40
52957;BME280;38819;42.692;23.342;2024-02-21T07:05:57;95984.63;;;8.29;65.52
52957;BME280;38819;42.692;23.342;2024-02-21T07:08:22;95976.03;;;8.32;65.47
52957;BME280;38819;42.692;23.342;2024-02-21T07:10:48;95982.50;;;8.37;65.05
52957;BME280;38819;42.692;23.342;2024-02-21T07:13:13;95986.28;;;8.35;65.20
52957;BME280;38819;42.692;23.342;2024-02-21T07:15:40;95995.31;;;8.19;65.90
52957;BME280;38819;42.692;23.342;2024-02-21T07:18:06;95985.34;;;8.20;65.64
52957;BME280;38819;42.692;23.342;2024-02-21T07:20:31;95977.56;;;8.23;65.97
52957;BME280;38819;42.692;23.342;2024-02-21T07:22:59;95982.97;;;8.28;65.69
52957;BME280;38819;42.692;23.342;2024-02-21T07:25:24;95991.06;;;8.28;65.51
52957;BME280;38819;42.692;23.342;2024-02-21T07:27:50;95993.75;;;8.28;65.60
52957;BME280;38819;42.692;23.342;2024-02-21T07:30:15;95990.56;;;8.37;65.51
52957;BME280;38819;42.692;23.342;2024-02-21T07:32:41;95981.97;;;8.34;65.46
52957;BME280;38819;42.692;23.342;2024-02-21T07:35:06;95985.44;;;8.35;65.08
52957;BME280;38819;42.692;23.342;2024-02-21T07:37:36;95996.25;;;8.40;65.20
52957;BME280;38819;42.692;23.342;2024-02-21T07:40:03;95994.75;;;8.49;64.90
52957;BME280;38819;42.692;23.342;2024-02-21T07:42:28;95999.84;;;8.46;65.03
52957;BME280;38819;42.692;23.342;2024-02-21T07:44:54;95991.16;;;8.39;65.29
52957;BME280;38819;42.692;23.342;2024-02-21T07:47:21;95991.44;;;8.42;65.16
52957;BME280;38819;42.692;23.342;2024-02-21T07:49:46;95987.91;;;8.42;65.08
52957;BME280;38819;42.692;23.342;2024-02-21T07:52:14;96001.19;;;8.48;65.39
52957;BME280;38819;42.692;23.342;2024-02-21T07:54:39;95985.03;;;8.48;65.19
52957;BME280;38819;42.692;23.342;2024-02-21T07:57:04;95986.16;;;8.58;65.07
52957;BME280;38819;42.692;23.342;2024-02-21T07:59:30;95987.75;;;8.53;65.19
52957;BME280;38819;42.692;23.342;2024-02-21T08:01:56;95984.34;;;8.68;64.60
52957;BME280;38819;42.692;23.342;2024-02-21T08:04:22;95982.25;;;8.76;64.46
52957;BME280;38819;42.692;23.342;2024-02-21T08:06:52;95980.38;;;8.86;64.59
52957;BME280;38819;42.692;23.342;2024-02-21T08:09:18;95979.31;;;8.87;64.50
52957;BME280;38819;42.692;23.342;2024-02-21T08:11:44;95982.56;;;8.89;63.92
52957;BME280;38819;42.692;23.342;2024-02-21T08:14:09;95986.06;;;8.90;63.97
52957;BME280;38819;42.692;23.342;2024-02-21T08:16:34;95986.59;;;8.87;64.09
52957;BME280;38819;42.692;23.342;2024-02-21T08:19:00;95983.09;;;8.86;63.80
52957;BME280;38819;42.692;23.342;2024-02-21T08:21:27;95979.31;;;8.82;64.07
52957;BME280;38819;42.692;23.342;2024-02-21T08:23:52;95979.81;;;8.74;63.90
52957;BME280;38819;42.692;23.342;2024-02-21T08:26:19;95982.81;;;8.83;64.27
52957;BME280;38819;42.692;23.342;2024-02-21T08:28:44;95974.91;;;8.66;64.17
52957;BME280;38819;42.692;23.342;2024-02-21T08:31:10;95976.81;;;8.70;64.90
52957;BME280;38819;42.692;23.342;2024-02-21T08:33:35;95975.25;;;8.80;64.54
52957;BME280;38819;42.692;23.342;2024-02-21T08:36:00;95978.50;;;8.87;64.27
52957;BME280;38819;42.692;23.342;2024-02-21T08:38:26;95977.47;;;8.98;63.57
52957;BME280;38819;42.692;23.342;2024-02-21T08:40:51;95984.50;;;9.04;63.35
52957;BME280;38819;42.692;23.342;2024-02-21T08:43:16;95975.91;;;9.07;62.65
52957;BME280;38819;42.692;23.342;2024-02-21T08:45:42;95975.69;;;9.24;62.16
52957;BME280;38819;42.692;23.342;2024-02-21T08:48:07;95978.38;;;9.19;62.38
52957;BME280;38819;42.692;23.342;2024-02-21T08:50:33;95974.06;;;9.28;61.75
52957;BME280;38819;42.692;23.342;2024-02-21T08:52:58;95982.41;;;9.27;61.88
52957;BME280;38819;42.692;23.342;2024-02-21T08:55:24;95991.06;;;9.29;61.79
52957;BME280;38819;42.692;23.342;2024-02-21T08:57:49;95979.75;;;9.32;61.18
52957;BME280;38819;42.692;23.342;2024-02-21T09:00:15;95980.56;;;9.38;60.86
52957;BME280;38819;42.692;23.342;2024-02-21T09:02:42;95977.34;;;9.41;61.08
52957;BME280;38819;42.692;23.342;2024-02-21T09:05:11;95987.34;;;9.45;61.11
52957;BME280;38819;42.692;23.342;2024-02-21T09:07:36;95979.53;;;9.54;60.87
52957;BME280;38819;42.692;23.342;2024-02-21T09:10:02;95984.94;;;9.49;60.85
52957;BME280;38819;42.692;23.342;2024-02-21T09:12:28;95977.38;;;9.51;60.54
52957;BME280;38819;42.692;23.342;2024-02-21T09:14:53;95984.34;;;9.47;60.83
52957;BME280;38819;42.692;23.342;2024-02-21T09:17:19;95983.28;;;9.38;61.09
52957;BME280;38819;42.692;23.342;2024-02-21T09:19:46;95986.78;;;9.38;60.55
52957;BME280;38819;42.692;23.342;2024-02-21T09:22:12;95979.19;;;9.25;60.86
52957;BME280;38819;42.692;23.342;2024-02-21T09:24:37;95981.09;;;9.24;60.68
52957;BME280;38819;42.692;23.342;2024-02-21T09:27:03;95982.09;;;9.08;61.39
52957;BME280;38819;42.692;23.342;2024-02-21T09:29:28;95974.03;;;9.18;61.38
52957;BME280;38819;42.692;23.342;2024-02-21T09:31:54;95980.28;;;9.24;61.19
52957;BME280;38819;42.692;23.342;2024-02-21T09:34:19;95987.00;;;9.26;61.35
52957;BME280;38819;42.692;23.342;2024-02-21T09:36:44;95974.63;;;9.25;60.81
52957;BME280;38819;42.692;23.342;2024-02-21T09:39:10;95987.53;;;9.23;60.56
52957;BME280;38819;42.692;23.342;2024-02-21T09:41:45;95983.25;;;9.33;60.81
52957;BME280;38819;42.692;23.342;2024-02-21T09:44:13;95985.97;;;9.33;60.48
52957;BME280;38819;42.692;23.342;2024-02-21T09:46:55;95978.88;;;9.11;61.59
52957;BME280;38819;42.692;23.342;2024-02-21T09:51:55;95973.00;;;9.30;60.83
52957;BME280;38819;42.692;23.342;2024-02-21T09:54:22;95972.22;;;9.34;60.61
52957;BME280;38819;42.692;23.342;2024-02-21T09:56:48;95981.09;;;9.35;60.72
52957;BME280;38819;42.692;23.342;2024-02-21T09:59:16;95975.72;;;9.45;60.41
52957;BME280;38819;42.692;23.342;2024-02-21T10:01:42;95977.38;;;9.51;60.38
52957;BME280;38819;42.692;23.342;2024-02-21T10:04:09;95958.25;;;9.58;59.72
52957;BME280;38819;42.692;23.342;2024-02-21T10:06:35;95959.03;;;9.63;59.24
52957;BME280;38819;42.692;23.342;2024-02-21T10:09:02;95962.84;;;9.73;59.07
52957;BME280;38819;42.692;23.342;2024-02-21T10:11:28;95968.78;;;9.75;58.49
52957;BME280;38819;42.692;23.342;2024-02-21T10:14:06;95964.75;;;9.82;57.94
52957;BME280;38819;42.692;23.342;2024-02-21T10:16:31;95958.78;;;9.80;57.86
52957;BME280;38819;42.692;23.342;2024-02-21T10:18:57;95959.88;;;10.00;57.47
52957;BME280;38819;42.692;23.342;2024-02-21T10:21:22;95949.34;;;10.04;57.50
52957;BME280;38819;42.692;23.342;2024-02-21T10:23:49;95948.28;;;10.10;55.89
52957;BME280;38819;42.692;23.342;2024-02-21T10:26:16;95956.09;;;10.01;56.39
52957;BME280;38819;42.692;23.342;2024-02-21T10:28:42;95938.56;;;9.83;56.54
52957;BME280;38819;42.692;23.342;2024-02-21T10:31:10;95938.28;;;10.00;55.57
52957;BME280;38819;42.692;23.342;2024-02-21T10:33:36;95923.97;;;10.10;55.55
52957;BME280;38819;42.692;23.342;2024-02-21T10:36:11;95924.78;;;10.15;55.28
52957;BME280;38819;42.692;23.342;2024-02-21T10:38:37;95922.34;;;10.19;54.72
52957;BME280;38819;42.692;23.342;2024-02-21T10:41:05;95917.25;;;10.12;54.64
52957;BME280;38819;42.692;23.342;2024-02-21T10:43:40;95909.13;;;10.02;54.85
52957;BME280;38819;42.692;23.342;2024-02-21T10:46:07;95903.72;;;10.17;54.96
52957;BME280;38819;42.692;23.342;2024-02-21T10:48:44;95893.50;;;10.04;55.59
52957;BME280;38819;42.692;23.342;2024-02-21T10:51:18;95880.53;;;10.11;55.34
52957;BME280;38819;42.692;23.342;2024-02-21T10:56:32;95883.72;;;10.24;55.82
52957;BME280;38819;42.692;23.342;2024-02-21T10:59:04;95878.84;;;10.41;55.13
52957;BME280;38819;42.692;23.342;2024-02-21T11:01:30;95883.13;;;10.57;54.37
52957;BME280;38819;42.692;23.342;2024-02-21T11:04:10;95865.28;;;10.56;53.01
52957;BME280;38819;42.692;23.342;2024-02-21T11:06:38;95858.78;;;10.63;52.83
52957;BME280;38819;42.692;23.342;2024-02-21T11:09:06;95854.91;;;10.79;52.62
52957;BME280;38819;42.692;23.342;2024-02-21T11:11:33;95854.13;;;10.73;50.21
52957;BME280;38819;42.692;23.342;2024-02-21T11:14:11;95863.31;;;10.83;50.10
52957;BME280;38819;42.692;23.342;2024-02-21T11:16:38;95854.91;;;10.84;49.41
52957;BME280;38819;42.692;23.342;2024-02-21T11:19:09;95855.41;;;10.91;49.09
52957;BME280;38819;42.692;23.342;2024-02-21T11:21:43;95851.88;;;10.96;48.84
52957;BME280;38819;42.692;23.342;2024-02-21T11:24:09;95851.56;;;11.03;48.33
52957;BME280;38819;42.692;23.342;2024-02-21T11:26:37;95847.72;;;11.09;47.80
52957;BME280;38819;42.692;23.342;2024-02-21T11:29:03;95849.56;;;11.19;47.62
52957;BME280;38819;42.692;23.342;2024-02-21T11:31:42;95843.28;;;11.28;47.52
52957;BME280;38819;42.692;23.342;2024-02-21T11:34:11;95840.28;;;11.30;47.74
52957;BME280;38819;42.692;23.342;2024-02-21T11:36:50;95848.44;;;11.25;47.35
52957;BME280;38819;42.692;23.342;2024-02-21T11:39:34;95840.09;;;11.21;47.38
52957;BME280;38819;42.692;23.342;2024-02-21T11:44:25;95836.41;;;11.07;48.24
52957;BME280;38819;42.692;23.342;2024-02-21T11:46:51;95833.38;;;11.13;48.01
52957;BME280;38819;42.692;23.342;2024-02-21T11:49:16;95835.25;;;11.18;48.52
52957;BME280;38819;42.692;23.342;2024-02-21T11:51:41;95827.97;;;11.13;48.72
52957;BME280;38819;42.692;23.342;2024-02-21T11:54:07;95824.50;;;11.08;48.53
52957;BME280;38819;42.692;23.342;2024-02-21T11:56:32;95824.22;;;11.09;48.65
52957;BME280;38819;42.692;23.342;2024-02-21T11:58:59;95818.53;;;11.06;48.31
52957;BME280;38819;42.692;23.342;2024-02-21T12:01:25;95818.06;;;10.99;48.77
52957;BME280;38819;42.692;23.342;2024-02-21T12:03:50;95816.94;;;11.05;48.76
52957;BME280;38819;42.692;23.342;2024-02-21T12:06:16;95812.63;;;11.04;48.85
52957;BME280;38819;42.692;23.342;2024-02-21T12:08:46;95824.78;;;11.06;49.08
52957;BME280;38819;42.692;23.342;2024-02-21T12:11:22;95820.16;;;11.07;49.32
52957;BME280;38819;42.692;23.342;2024-02-21T12:13:58;95822.38;;;11.00;49.13
52957;BME280;38819;42.692;23.342;2024-02-21T12:16:25;95813.72;;;11.03;49.55
52957;BME280;38819;42.692;23.342;2024-02-21T12:18:56;95811.63;;;10.94;49.93
52957;BME280;38819;42.692;23.342;2024-02-21T12:21:30;95811.66;;;10.89;49.92
52957;BME280;38819;42.692;23.342;2024-02-21T12:23:58;95810.59;;;10.80;49.93
52957;BME280;38819;42.692;23.342;2024-02-21T12:26:23;95810.38;;;10.71;50.18
52957;BME280;38819;42.692;23.342;2024-02-21T12:28:49;95809.84;;;10.74;49.46
52957;BME280;38819;42.692;23.342;2024-02-21T12:31:15;95802.59;;;10.65;50.20
52957;BME280;38819;42.692;23.342;2024-02-21T12:33:42;95796.63;;;10.68;50.10
52957;BME280;38819;42.692;23.342;2024-02-21T12:36:07;95798.25;;;10.64;50.04
52957;BME280;38819;42.692;23.342;2024-02-21T12:38:34;95805.91;;;10.51;49.88
52957;BME280;38819;42.692;23.342;2024-02-21T12:41:00;95799.94;;;10.54;49.98
52957;BME280;38819;42.692;23.342;2024-02-21T12:43:26;95788.78;;;10.71;49.72
52957;BME280;38819;42.692;23.342;2024-02-21T12:45:51;95797.84;;;10.86;49.23
52957;BME280;38819;42.692;23.342;2024-02-21T12:48:16;95795.47;;;10.79;49.74
52957;BME280;38819;42.692;23.342;2024-02-21T12:50:49;95791.69;;;10.80;50.73
52957;BME280;38819;42.692;23.342;2024-02-21T12:53:18;95797.84;;;10.91;51.16
52957;BME280;38819;42.692;23.342;2024-02-21T12:55:47;95797.38;;;10.79;51.57
52957;BME280;38819;42.692;23.342;2024-02-21T12:58:14;95791.97;;;10.79;53.09
52957;BME280;38819;42.692;23.342;2024-02-21T13:00:39;95796.66;;;10.63;54.62